createdAt,value
2019-01-21T00:01:06.302Z,11.97
2019-01-21T00:03:36.504Z,11.90
2019-01-21T00:06:06.582Z,11.86
2019-01-21T00:08:36.916Z,11.89
2019-01-21T00:11:06.747Z,11.90
2019-01-21T00:13:36.956Z,11.89
2019-01-21T00:16:06.557Z,11.88
2019-01-21T00:18:36.663Z,11.87
2019-01-21T00:21:06.302Z,11.88
2019-01-21T00:23:36.818Z,11.82
2019-01-21T00:26:06.779Z,11.73
2019-01-21T00:28:36.547Z,11.74
2019-01-21T00:31:06.333Z,11.79
2019-01-21T00:33:36.048Z,11.80
2019-01-21T00:36:06.412Z,11.84
2019-01-21T00:38:37.819Z,11.85
2019-01-21T00:41:15.970Z,11.85
2019-01-21T00:43:46.326Z,11.84
2019-01-21T00:46:16.280Z,11.80
2019-01-21T00:48:46.819Z,11.84
2019-01-21T00:51:16.884Z,11.83
2019-01-21T00:56:25.015Z,11.96
2019-01-21T00:58:54.984Z,11.90
2019-01-21T01:01:24.773Z,11.88
2019-01-21T01:03:55.028Z,11.85
2019-01-21T01:06:25.358Z,11.82
2019-01-21T01:08:55.327Z,11.83
2019-01-21T01:11:25.514Z,11.82
2019-01-21T01:13:55.289Z,11.83
2019-01-21T01:16:25.687Z,11.90
2019-01-21T01:18:55.758Z,11.92
2019-01-21T01:21:25.831Z,11.97
2019-01-21T01:23:55.936Z,12.02
2019-01-21T01:26:26.086Z,12.10
2019-01-21T01:28:56.185Z,12.19
2019-01-21T01:31:26.476Z,12.31
2019-01-21T01:33:56.439Z,12.45
2019-01-21T01:36:26.771Z,12.62
2019-01-21T01:38:56.694Z,12.83
2019-01-21T01:41:27.103Z,13.00
2019-01-21T01:43:56.575Z,13.13
2019-01-21T01:46:26.527Z,13.31
2019-01-21T01:48:56.290Z,13.45
2019-01-21T01:51:26.092Z,13.49
2019-01-21T01:53:56.129Z,13.58
2019-01-21T01:56:26.268Z,13.70
2019-01-21T01:58:56.566Z,13.85
2019-01-21T02:01:27.671Z,13.97
2019-01-21T02:03:57.755Z,14.08
2019-01-21T02:06:27.650Z,14.22
2019-01-21T02:08:57.910Z,14.50
2019-01-21T02:11:28.027Z,14.87
2019-01-21T02:13:57.812Z,15.23
2019-01-21T02:16:27.929Z,15.55
2019-01-21T02:18:57.748Z,15.93
2019-01-21T02:21:28.081Z,16.22
2019-01-21T02:23:57.578Z,16.48
2019-01-21T02:26:27.891Z,16.68
2019-01-21T02:28:58.281Z,17.07
2019-01-21T02:31:31.163Z,17.41
2019-01-21T02:34:02.973Z,17.78
2019-01-21T02:36:33.077Z,17.98
2019-01-21T02:39:04.120Z,18.30
2019-01-21T02:41:34.057Z,18.57
2019-01-21T02:44:04.156Z,18.92
2019-01-21T02:46:33.539Z,19.06
2019-01-21T02:49:03.247Z,19.24
2019-01-21T02:51:33.171Z,19.73
2019-01-21T02:54:02.931Z,20.22
2019-01-21T02:56:32.535Z,20.51
2019-01-21T02:59:02.320Z,20.93
2019-01-21T03:01:40.013Z,21.27
2019-01-21T03:04:09.995Z,21.44
2019-01-21T03:06:39.567Z,21.62
2019-01-21T03:09:09.415Z,21.91
2019-01-21T03:11:39.523Z,22.10
2019-01-21T03:16:38.107Z,22.59
2019-01-21T03:19:07.442Z,22.77
2019-01-21T03:21:36.650Z,23.01
2019-01-21T03:24:06.367Z,23.03
2019-01-21T03:26:35.541Z,23.11
2019-01-21T03:29:04.617Z,23.29
2019-01-21T03:31:33.809Z,23.36
2019-01-21T03:34:03.178Z,23.37
2019-01-21T03:36:32.756Z,23.44
2019-01-21T03:47:07.998Z,23.90
2019-01-21T03:49:37.530Z,23.93
2019-01-21T03:52:06.719Z,23.98
2019-01-21T03:54:36.250Z,23.89
2019-01-21T04:10:39.017Z,24.25
2019-01-21T04:43:01.506Z,25.64
2019-01-21T04:45:42.737Z,25.93
2019-01-21T04:48:24.029Z,25.97
2019-01-21T04:51:04.594Z,26.24
2019-01-21T04:53:44.686Z,26.21
2019-01-21T04:56:25.691Z,26.14
2019-01-21T04:59:06.655Z,26.47
2019-01-21T05:01:47.288Z,26.37
2019-01-21T05:04:28.507Z,26.37
2019-01-21T05:07:08.904Z,26.40
2019-01-21T05:09:50.106Z,26.44
2019-01-21T05:12:30.459Z,26.45
2019-01-21T05:15:11.118Z,26.38
2019-01-21T05:17:52.022Z,26.40
2019-01-21T05:20:33.294Z,26.54
2019-01-21T05:23:14.609Z,26.86
2019-01-21T05:25:55.768Z,26.79
2019-01-21T05:28:36.925Z,27.18
2019-01-21T05:31:17.466Z,27.00
2019-01-21T05:33:57.732Z,27.15
2019-01-21T05:36:38.078Z,27.10
2019-01-21T05:39:19.085Z,27.36
2019-01-21T05:41:59.445Z,27.32
2019-01-21T05:44:40.097Z,27.20
2019-01-21T05:47:20.491Z,27.29
2019-01-21T05:50:01.360Z,27.44
2019-01-21T05:52:42.065Z,27.56
2019-01-21T05:55:22.669Z,27.59
2019-01-21T05:58:03.022Z,27.82
2019-01-21T06:00:43.793Z,27.93
2019-01-21T06:03:23.941Z,28.11
2019-01-21T06:06:04.787Z,27.69
2019-01-21T06:08:45.278Z,27.52
2019-01-21T06:11:25.861Z,27.75
2019-01-21T06:14:06.663Z,27.99
2019-01-21T06:16:47.530Z,28.06
2019-01-21T06:19:28.388Z,27.95
2019-01-21T06:22:09.731Z,28.26
2019-01-21T06:24:50.338Z,28.34
2019-01-21T06:27:30.753Z,28.57
2019-01-21T06:30:11.934Z,28.68
2019-01-21T06:32:53.056Z,28.54
2019-01-21T06:35:34.482Z,28.26
2019-01-21T06:38:15.332Z,28.67
2019-01-21T06:40:56.273Z,28.63
2019-01-21T06:43:37.267Z,28.88
2019-01-21T06:46:18.254Z,28.83
2019-01-21T06:49:04.688Z,28.50
2019-01-21T06:51:40.894Z,28.36
2019-01-21T06:54:22.149Z,28.70
2019-01-21T06:57:03.312Z,28.49
2019-01-21T06:59:44.460Z,28.58
2019-01-21T07:02:25.291Z,28.18
2019-01-21T07:05:06.679Z,28.50
2019-01-21T07:07:47.561Z,28.61
2019-01-21T07:10:28.496Z,28.49
2019-01-21T07:13:09.276Z,28.41
2019-01-21T07:15:50.791Z,28.71
2019-01-21T07:18:31.660Z,28.63
2019-01-21T07:21:12.060Z,28.68
2019-01-21T07:23:53.097Z,28.83
2019-01-21T07:26:34.253Z,28.90
2019-01-21T07:29:14.711Z,28.59
2019-01-21T07:31:55.695Z,28.43
2019-01-21T07:34:36.890Z,28.01
2019-01-21T07:37:17.357Z,27.91
2019-01-21T07:39:57.970Z,28.06
2019-01-21T07:42:38.859Z,27.99
2019-01-21T07:45:19.421Z,27.78
2019-01-21T07:48:00.061Z,27.73
2019-01-21T07:50:40.724Z,28.16
2019-01-21T07:53:21.139Z,28.27
2019-01-21T07:56:01.565Z,28.30
2019-01-21T07:58:42.912Z,28.52
2019-01-21T08:01:23.921Z,28.07
2019-01-21T08:04:04.962Z,28.13
2019-01-21T08:06:46.060Z,28.45
2019-01-21T08:09:27.091Z,28.68
2019-01-21T08:12:07.683Z,28.87
2019-01-21T08:14:49.031Z,28.91
2019-01-21T08:17:30.089Z,28.80
2019-01-21T08:20:11.286Z,29.03
2019-01-21T08:22:52.519Z,28.54
2019-01-21T08:25:33.090Z,28.38
2019-01-21T08:28:14.516Z,28.88
2019-01-21T08:30:55.587Z,28.94
2019-01-21T08:33:36.206Z,28.76
2019-01-21T08:36:17.091Z,28.96
2019-01-21T08:38:57.750Z,29.07
2019-01-21T08:41:38.357Z,29.04
2019-01-21T08:44:19.046Z,28.87
2019-01-21T08:47:00.183Z,28.61
2019-01-21T08:49:41.541Z,28.68
2019-01-21T08:52:22.427Z,29.02
2019-01-21T08:55:02.993Z,29.07
2019-01-21T08:57:43.706Z,28.71
2019-01-21T09:00:24.768Z,28.71
2019-01-21T09:03:05.920Z,28.22
2019-01-21T09:05:46.922Z,28.51
2019-01-21T09:08:28.596Z,28.45
2019-01-21T09:11:09.072Z,28.46
2019-01-21T09:13:50.091Z,28.56
2019-01-21T09:16:30.750Z,28.55
2019-01-21T09:19:12.030Z,28.64
2019-01-21T09:21:52.424Z,28.62
2019-01-21T09:24:33.179Z,28.46
2019-01-21T09:27:14.051Z,28.51
2019-01-21T09:29:54.895Z,28.38
2019-01-21T09:32:35.843Z,28.18
2019-01-21T09:35:16.502Z,28.16
2019-01-21T09:37:57.541Z,27.97
2019-01-21T09:40:38.411Z,28.04
2019-01-21T09:43:19.406Z,28.10
2019-01-21T09:46:00.058Z,28.11
2019-01-21T09:48:40.644Z,28.32
2019-01-21T09:51:21.938Z,28.34
2019-01-21T09:54:03.544Z,28.29
2019-01-21T09:56:44.517Z,28.36
2019-01-21T09:59:25.445Z,28.46
2019-01-21T10:02:06.243Z,28.26
2019-01-21T10:04:47.137Z,28.24
2019-01-21T10:07:28.333Z,28.17
2019-01-21T10:10:09.625Z,28.13
2019-01-21T10:12:50.580Z,28.04
2019-01-21T10:15:30.718Z,27.89
2019-01-21T10:18:11.965Z,27.97
2019-01-21T10:20:52.778Z,27.93
2019-01-21T10:23:33.396Z,27.85
2019-01-21T10:26:13.867Z,27.84
2019-01-21T10:28:55.322Z,27.74
2019-01-21T10:31:36.319Z,27.59
2019-01-21T10:34:17.473Z,27.57
2019-01-21T10:36:58.232Z,27.54
2019-01-21T10:39:38.862Z,27.55
2019-01-21T10:42:19.590Z,27.52
2019-01-21T10:44:59.918Z,27.48
2019-01-21T10:47:40.465Z,27.33
2019-01-21T10:50:21.954Z,27.15
2019-01-21T10:53:02.822Z,26.89
2019-01-21T10:55:44.022Z,26.64
2019-01-21T10:58:24.584Z,26.38
2019-01-21T11:01:05.371Z,26.12
2019-01-21T11:03:46.137Z,25.90
2019-01-21T11:06:26.839Z,25.65
2019-01-21T11:09:08.010Z,25.55
2019-01-21T11:11:53.984Z,25.41
2019-01-21T11:14:29.939Z,25.23
2019-01-21T11:17:11.097Z,24.98
2019-01-21T11:19:52.086Z,24.70
2019-01-21T11:22:33.141Z,24.46
2019-01-21T11:25:14.301Z,24.26
2019-01-21T11:27:55.461Z,24.07
2019-01-21T11:30:36.209Z,23.87
2019-01-21T11:33:17.264Z,23.62
2019-01-21T11:35:58.391Z,23.44
2019-01-21T11:38:38.744Z,23.20
2019-01-21T11:41:19.675Z,22.96
2019-01-21T11:44:00.639Z,22.78
2019-01-21T11:46:41.558Z,22.57
2019-01-21T11:49:22.537Z,22.36
2019-01-21T11:52:03.256Z,22.15
2019-01-21T11:54:44.035Z,21.97
2019-01-21T11:57:25.649Z,21.83
2019-01-21T12:00:07.353Z,21.64
2019-01-21T12:02:48.377Z,21.45
2019-01-21T12:05:29.145Z,21.30
2019-01-21T12:08:10.272Z,21.21
2019-01-21T12:10:51.105Z,20.82
2019-01-21T12:13:31.868Z,20.67
2019-01-21T12:16:12.652Z,20.56
2019-01-21T12:18:54.078Z,20.52
2019-01-21T12:21:35.393Z,20.40
2019-01-21T12:24:16.067Z,20.32
2019-01-21T12:26:57.293Z,20.12
2019-01-21T12:29:38.008Z,19.97
2019-01-21T12:32:18.889Z,19.75
2019-01-21T12:34:59.862Z,19.63
2019-01-21T12:37:40.441Z,19.45
2019-01-21T12:40:21.722Z,19.33
2019-01-21T12:43:02.588Z,19.17
2019-01-21T12:45:43.758Z,19.12
2019-01-21T12:48:24.907Z,18.87
2019-01-21T12:51:05.414Z,19.03
2019-01-21T12:53:46.371Z,18.87
2019-01-21T12:56:26.998Z,18.74
2019-01-21T12:59:07.894Z,18.58
2019-01-21T13:01:48.574Z,18.53
2019-01-21T13:04:29.570Z,18.46
2019-01-21T13:07:10.512Z,18.41
2019-01-21T13:09:51.395Z,18.43
2019-01-21T13:12:32.192Z,18.41
2019-01-21T13:15:12.942Z,18.38
2019-01-21T13:17:54.343Z,18.35
2019-01-21T13:20:34.789Z,18.29
2019-01-21T13:23:15.214Z,18.19
2019-01-21T13:25:56.713Z,18.09
2019-01-21T13:28:38.209Z,18.05
2019-01-21T13:31:18.480Z,17.99
2019-01-21T13:33:58.837Z,17.88
2019-01-21T13:36:39.211Z,17.84
2019-01-21T13:39:19.679Z,17.78
2019-01-21T13:42:00.305Z,17.68
2019-01-21T13:44:42.003Z,17.63
2019-01-21T13:47:22.599Z,17.61
2019-01-21T13:50:03.273Z,17.59
2019-01-21T13:52:44.119Z,17.53
2019-01-21T13:55:25.981Z,17.47
2019-01-21T13:58:06.847Z,17.41
2019-01-21T14:00:47.498Z,17.48
2019-01-21T14:03:28.536Z,17.46
2019-01-21T14:06:08.918Z,17.39
2019-01-21T14:08:49.760Z,17.29
2019-01-21T14:11:30.096Z,17.16
2019-01-21T14:14:10.785Z,17.04
2019-01-21T14:16:51.535Z,16.97
2019-01-21T14:19:32.301Z,16.91
2019-01-21T14:22:12.776Z,16.81
2019-01-21T14:24:53.753Z,16.74
2019-01-21T14:27:37.318Z,16.65
2019-01-21T14:30:18.109Z,16.55
2019-01-21T14:32:58.243Z,16.55
2019-01-21T14:35:39.039Z,16.53
2019-01-21T14:38:20.041Z,16.46
2019-01-21T14:41:00.626Z,16.35
2019-01-21T14:43:41.240Z,16.27
2019-01-21T14:46:22.177Z,16.28
2019-01-21T14:49:04.745Z,16.23
2019-01-21T14:51:44.922Z,16.20
2019-01-21T14:54:25.137Z,16.27
2019-01-21T14:57:05.765Z,16.31
2019-01-21T14:59:46.905Z,16.21
2019-01-21T15:02:27.379Z,16.12
2019-01-21T15:05:07.771Z,16.23
2019-01-21T15:07:48.686Z,16.17
2019-01-21T15:10:29.388Z,16.09
2019-01-21T15:13:09.781Z,16.06
2019-01-21T15:15:50.601Z,15.99
2019-01-21T15:18:30.578Z,15.96
2019-01-21T15:21:11.095Z,15.89
2019-01-21T15:23:51.826Z,15.82
2019-01-21T15:26:32.765Z,15.82
2019-01-21T15:29:15.910Z,15.77
2019-01-21T15:31:57.775Z,15.75
2019-01-21T15:34:38.768Z,15.74
2019-01-21T15:37:19.245Z,15.67
2019-01-21T15:40:00.311Z,15.64
2019-01-21T15:42:40.781Z,15.72
2019-01-21T15:47:58.806Z,15.72
2019-01-21T15:50:38.678Z,15.58
2019-01-21T15:53:19.334Z,15.51
2019-01-21T15:56:00.091Z,15.47
2019-01-21T15:58:40.788Z,15.41
2019-01-21T16:01:21.173Z,15.35
2019-01-21T16:04:01.596Z,15.37
2019-01-21T16:06:42.047Z,15.32
2019-01-21T16:09:22.480Z,15.26
2019-01-21T16:12:02.587Z,15.22
2019-01-21T16:14:43.017Z,15.28
2019-01-21T16:17:23.385Z,15.26
2019-01-21T16:20:04.267Z,15.21
2019-01-21T16:22:44.828Z,15.23
2019-01-21T16:25:25.216Z,15.24
2019-01-21T16:28:05.753Z,15.18
2019-01-21T16:30:46.073Z,15.20
2019-01-21T16:33:26.450Z,15.12
2019-01-21T16:36:07.306Z,15.02
2019-01-21T16:38:47.779Z,14.91
2019-01-21T16:41:28.967Z,14.80
2019-01-21T16:44:08.944Z,14.81
2019-01-21T16:46:49.932Z,14.81
2019-01-21T16:49:30.353Z,14.82
2019-01-21T16:52:10.824Z,14.81
2019-01-21T16:54:51.389Z,14.79
2019-01-21T16:57:32.254Z,14.76
2019-01-21T17:00:12.603Z,14.75
2019-01-21T17:02:53.604Z,14.84
2019-01-21T17:05:34.557Z,14.82
2019-01-21T17:08:15.854Z,14.77
2019-01-21T17:10:56.988Z,14.73
2019-01-21T17:13:38.066Z,14.72
2019-01-21T17:16:19.347Z,14.72
2019-01-21T17:19:00.657Z,14.71
2019-01-21T17:21:41.413Z,14.71
2019-01-21T17:24:22.536Z,14.70
2019-01-21T17:27:02.999Z,14.68
2019-01-21T17:29:43.378Z,14.67
2019-01-21T17:32:23.896Z,14.63
2019-01-21T17:35:05.354Z,14.59
2019-01-21T17:37:46.281Z,14.58
2019-01-21T17:40:26.973Z,14.57
2019-01-21T17:43:08.162Z,14.57
2019-01-21T17:45:49.013Z,14.56
2019-01-21T17:48:29.814Z,14.53
2019-01-21T17:53:55.257Z,14.51
2019-01-21T17:56:36.500Z,14.49
2019-01-21T17:59:18.476Z,14.47
2019-01-21T18:01:59.108Z,14.47
2019-01-21T18:04:39.315Z,14.41
2019-01-21T18:07:20.315Z,14.43
2019-01-21T18:10:02.848Z,14.38
2019-01-21T18:12:43.208Z,14.33
2019-01-21T18:15:23.968Z,14.27
2019-01-21T18:18:04.448Z,14.24
2019-01-21T18:20:45.401Z,14.16
2019-01-21T18:23:26.297Z,14.06
2019-01-21T18:26:07.362Z,13.96
2019-01-21T18:28:47.807Z,13.92
2019-01-21T18:31:28.603Z,13.88
2019-01-21T18:34:08.958Z,13.81
2019-01-21T18:36:49.616Z,13.69
2019-01-21T18:39:30.001Z,13.62
2019-01-21T18:42:11.647Z,13.60
2019-01-21T18:44:52.835Z,13.57
2019-01-21T18:47:33.709Z,13.55
2019-01-21T18:50:14.084Z,13.50
2019-01-21T18:52:56.110Z,13.46
2019-01-21T18:55:36.737Z,13.44
2019-01-21T18:58:17.588Z,13.44
2019-01-21T19:00:58.236Z,13.45
2019-01-21T19:03:38.715Z,13.41
2019-01-21T19:06:19.596Z,13.41
2019-01-21T19:09:00.228Z,13.40
2019-01-21T19:11:40.849Z,13.52
2019-01-21T19:14:21.505Z,13.49
2019-01-21T19:17:02.178Z,13.56
2019-01-21T19:19:43.060Z,13.51
2019-01-21T19:22:24.331Z,13.50
2019-01-21T19:25:05.632Z,13.46
2019-01-21T19:27:46.460Z,13.47
2019-01-21T19:30:27.483Z,13.46
2019-01-21T19:33:07.702Z,13.43
2019-01-21T19:35:48.339Z,13.55
2019-01-21T19:38:28.953Z,13.56
2019-01-21T19:41:09.511Z,13.47
2019-01-21T19:43:50.720Z,13.47
2019-01-21T19:46:31.364Z,13.40
2019-01-21T19:49:11.919Z,13.29
2019-01-21T19:51:52.984Z,13.21
2019-01-21T19:54:33.877Z,13.22
2019-01-21T19:57:14.283Z,13.17
2019-01-21T19:59:54.696Z,13.06
2019-01-21T20:02:35.435Z,13.01
2019-01-21T20:05:16.160Z,13.07
2019-01-21T20:07:57.178Z,13.12
2019-01-21T20:10:37.894Z,13.08
2019-01-21T20:13:18.721Z,13.10
2019-01-21T20:15:59.178Z,13.12
2019-01-21T20:18:40.051Z,13.22
2019-01-21T20:21:20.505Z,13.25
2019-01-21T20:24:01.107Z,13.14
2019-01-21T20:26:41.762Z,13.04
2019-01-21T20:29:22.875Z,12.94
2019-01-21T20:32:03.851Z,12.95
2019-01-21T20:34:44.650Z,12.97
2019-01-21T20:37:25.203Z,13.04
2019-01-21T20:40:06.453Z,13.01
2019-01-21T20:42:47.379Z,13.02
2019-01-21T20:45:28.059Z,12.90
2019-01-21T20:48:08.824Z,12.89
2019-01-21T20:50:49.445Z,12.86
2019-01-21T20:53:30.646Z,12.72
2019-01-21T20:56:12.165Z,12.64
2019-01-21T20:58:53.163Z,12.62
2019-01-21T21:01:34.093Z,12.68
2019-01-21T21:04:15.056Z,12.72
2019-01-21T21:06:56.004Z,12.74
2019-01-21T21:09:36.957Z,12.70
2019-01-21T21:12:17.976Z,12.66
2019-01-21T21:14:58.332Z,12.59
2019-01-21T21:17:39.312Z,12.56
2019-01-21T21:20:20.127Z,12.58
2019-01-21T21:23:01.112Z,12.61
2019-01-21T21:25:41.917Z,12.64
2019-01-21T21:28:22.980Z,12.65
2019-01-21T21:31:04.308Z,12.61
2019-01-21T21:33:44.943Z,12.58
2019-01-21T21:36:25.592Z,12.53
2019-01-21T21:42:17.365Z,12.50
2019-01-21T21:44:58.107Z,12.54
2019-01-21T21:47:39.491Z,12.57
2019-01-21T21:50:20.600Z,12.59
2019-01-21T21:53:01.547Z,12.71
2019-01-21T21:55:42.577Z,12.72
2019-01-21T21:58:23.771Z,12.67
2019-01-21T22:01:04.692Z,12.65
2019-01-21T22:03:45.457Z,12.68
2019-01-21T22:06:27.089Z,12.63
2019-01-21T22:09:08.024Z,12.65
2019-01-21T22:11:48.848Z,12.68
2019-01-21T22:14:29.295Z,12.71
2019-01-21T22:17:10.100Z,12.58
2019-01-21T22:19:51.679Z,12.50
2019-01-21T22:22:34.811Z,12.43
2019-01-21T22:25:13.634Z,12.34
2019-01-21T22:27:54.262Z,12.30
2019-01-21T22:30:35.855Z,12.27
2019-01-21T22:33:16.145Z,12.24
2019-01-21T22:35:57.021Z,12.22
2019-01-21T22:38:38.301Z,12.23
2019-01-21T22:41:19.001Z,12.21
2019-01-21T22:43:59.700Z,12.26
2019-01-21T22:46:40.661Z,12.31
2019-01-21T22:49:21.290Z,12.32
2019-01-21T22:52:02.564Z,12.28
2019-01-21T22:54:43.518Z,12.23
2019-01-21T22:57:24.177Z,12.25
2019-01-21T23:00:05.170Z,12.32
2019-01-21T23:02:46.137Z,12.26
2019-01-21T23:05:27.420Z,12.20
2019-01-21T23:08:07.890Z,12.20
2019-01-21T23:10:49.380Z,12.33
2019-01-21T23:13:30.241Z,12.28
2019-01-21T23:16:11.300Z,12.23
2019-01-21T23:18:52.490Z,12.20
2019-01-21T23:21:33.456Z,12.20
2019-01-21T23:24:16.605Z,12.15
2019-01-21T23:26:56.000Z,12.12
2019-01-21T23:29:36.994Z,12.13
2019-01-21T23:32:17.770Z,12.21
2019-01-21T23:34:58.746Z,12.15
2019-01-21T23:37:40.161Z,12.14
2019-01-21T23:40:21.760Z,12.14
2019-01-21T23:43:02.778Z,12.13
2019-01-21T23:45:43.461Z,12.10
2019-01-21T23:48:24.325Z,12.11
2019-01-21T23:51:04.677Z,12.03
2019-01-21T23:53:45.777Z,12.04
2019-01-21T23:56:26.883Z,12.13
2019-01-21T23:59:08.189Z,12.04
